createdAt,value
2022-11-28T00:01:28.846Z,6.65
2022-11-28T00:03:56.003Z,6.85
2022-11-28T00:06:23.068Z,7.38
2022-11-28T00:08:50.122Z,6.93
2022-11-28T00:11:17.527Z,6.60
2022-11-28T00:13:45.505Z,6.63
2022-11-28T00:16:21.439Z,6.55
2022-11-28T00:18:54.786Z,5.85
2022-11-28T00:21:22.237Z,5.95
2022-11-28T00:23:49.577Z,6.07
2022-11-28T00:26:28.049Z,6.40
2022-11-28T00:28:56.563Z,5.13
2022-11-28T00:31:30.156Z,5.50
2022-11-28T00:33:57.045Z,5.30
2022-11-28T00:36:24.905Z,5.70
2022-11-28T00:38:52.316Z,6.30
2022-11-28T00:41:23.798Z,5.72
2022-11-28T00:46:20.248Z,6.03
2022-11-28T00:48:47.200Z,6.35
2022-11-28T00:51:22.311Z,6.75
2022-11-28T00:53:52.126Z,5.65
2022-11-28T00:56:25.725Z,5.80
2022-11-28T00:58:53.214Z,5.60
2022-11-28T01:01:27.707Z,5.35
2022-11-28T01:03:58.384Z,4.75
2022-11-28T01:06:33.732Z,5.60
2022-11-28T01:09:06.092Z,5.80
2022-11-28T01:11:33.479Z,5.60
2022-11-28T01:14:01.938Z,5.03
2022-11-28T01:16:29.635Z,5.70
2022-11-28T01:18:56.733Z,5.25
2022-11-28T01:21:23.854Z,5.05
2022-11-28T01:23:50.889Z,5.38
2022-11-28T01:26:22.122Z,5.50
2022-11-28T01:28:49.073Z,4.15
2022-11-28T01:31:20.160Z,3.88
2022-11-28T01:33:47.800Z,4.32
2022-11-28T01:36:15.423Z,4.97
2022-11-28T01:38:43.096Z,5.50
2022-11-28T01:41:10.876Z,5.85
2022-11-28T01:43:38.470Z,6.07
2022-11-28T01:46:06.121Z,6.32
2022-11-28T01:48:40.228Z,7.18
2022-11-28T01:51:09.418Z,6.22
2022-11-28T01:53:41.396Z,5.57
2022-11-28T01:56:22.627Z,5.88
2022-11-28T01:58:55.446Z,3.83
2022-11-28T02:01:24.322Z,3.70
2022-11-28T02:03:52.542Z,4.35
2022-11-28T02:06:23.601Z,4.20
2022-11-28T02:08:54.677Z,3.40
2022-11-28T02:12:42.962Z,4.30
2022-11-28T02:16:39.181Z,4.30
2022-11-28T02:23:23.692Z,4.97
2022-11-28T02:26:31.174Z,4.35
2022-11-28T02:29:47.323Z,4.90
2022-11-28T02:32:26.137Z,3.72
2022-11-28T02:35:53.016Z,3.95
2022-11-28T02:38:36.584Z,4.25
2022-11-28T02:41:15.837Z,4.00
2022-11-28T02:44:04.196Z,3.25
2022-11-28T02:46:48.157Z,3.05
2022-11-28T02:49:23.908Z,2.90
2022-11-28T02:51:57.688Z,2.17
2022-11-28T02:54:27.219Z,1.83
2022-11-28T02:56:55.247Z,2.20
2022-11-28T02:59:42.165Z,1.88
2022-11-28T03:02:19.833Z,2.10
2022-11-28T03:05:07.718Z,1.90
2022-11-28T03:08:20.384Z,2.08
2022-11-28T03:10:59.366Z,1.83
2022-11-28T03:13:54.730Z,1.98
2022-11-28T03:16:34.437Z,2.28
2022-11-28T03:19:27.930Z,1.63
2022-11-28T03:22:43.341Z,1.60
2022-11-28T03:25:27.487Z,1.70
2022-11-28T03:28:22.909Z,1.35
2022-11-28T03:31:04.517Z,1.98
2022-11-28T03:33:49.922Z,1.75
2022-11-28T03:36:32.591Z,1.85
2022-11-28T03:39:21.866Z,1.45
2022-11-28T03:42:15.422Z,1.55
2022-11-28T03:45:09.784Z,1.45
2022-11-28T03:48:04.991Z,1.42
2022-11-28T03:50:51.604Z,1.50
2022-11-28T03:53:27.849Z,1.48
2022-11-28T03:56:19.602Z,1.58
2022-11-28T03:59:12.811Z,1.90
2022-11-28T04:02:20.827Z,1.52
2022-11-28T04:08:17.928Z,1.20
2022-11-28T04:11:13.721Z,1.60
2022-11-28T04:13:58.681Z,1.63
2022-11-28T04:16:53.925Z,1.45
2022-11-28T04:19:32.385Z,2.00
2022-11-28T04:22:29.241Z,1.48
2022-11-28T04:25:04.010Z,1.58
2022-11-28T04:27:42.455Z,1.63
2022-11-28T04:30:11.404Z,1.33
2022-11-28T04:32:44.841Z,1.60
2022-11-28T04:35:25.199Z,1.80
2022-11-28T04:37:54.845Z,1.77
2022-11-28T04:40:24.841Z,1.75
2022-11-28T04:42:57.913Z,1.67
2022-11-28T04:45:34.441Z,1.95
2022-11-28T04:48:01.992Z,1.60
2022-11-28T04:50:54.374Z,2.13
2022-11-28T04:53:32.712Z,1.60
2022-11-28T04:56:06.784Z,1.52
2022-11-28T04:58:45.862Z,1.58
2022-11-28T05:01:26.004Z,1.70
2022-11-28T05:03:54.162Z,1.35
2022-11-28T05:06:34.197Z,1.98
2022-11-28T05:09:01.355Z,1.50
2022-11-28T05:11:28.713Z,1.55
2022-11-28T05:13:55.586Z,1.65
2022-11-28T05:16:23.522Z,1.80
2022-11-28T05:18:50.325Z,2.00
2022-11-28T05:21:17.121Z,1.73
2022-11-28T05:23:45.418Z,1.42
2022-11-28T05:26:19.502Z,1.73
2022-11-28T05:28:49.655Z,1.90
2022-11-28T05:31:18.316Z,2.22
2022-11-28T05:33:45.108Z,1.58
2022-11-28T05:36:14.209Z,1.48
2022-11-28T05:38:42.496Z,1.90
2022-11-28T05:41:10.264Z,7.78
2022-11-28T05:43:37.373Z,22.65
2022-11-28T05:46:07.191Z,12.27
2022-11-28T05:48:33.985Z,11.82
2022-11-28T05:51:00.790Z,9.90
2022-11-28T05:53:27.538Z,26.67
2022-11-28T05:55:54.334Z,9.32
2022-11-28T05:58:21.086Z,2.00
2022-11-28T06:00:47.869Z,1.38
2022-11-28T06:03:14.690Z,2.00
2022-11-28T06:05:44.124Z,1.95
2022-11-28T06:08:14.099Z,2.30
2022-11-28T06:10:41.460Z,7.07
2022-11-28T06:13:08.605Z,30.77
2022-11-28T06:15:38.211Z,2.00
2022-11-28T06:18:05.955Z,1.70
2022-11-28T06:20:35.748Z,1.63
2022-11-28T06:23:02.542Z,1.40
2022-11-28T06:25:29.568Z,1.50
2022-11-28T06:27:56.317Z,10.32
2022-11-28T06:30:23.086Z,4.68
2022-11-28T06:32:49.844Z,3.22
2022-11-28T06:35:16.817Z,1.60
2022-11-28T06:37:43.610Z,2.20
2022-11-28T06:40:10.962Z,7.90
2022-11-28T06:42:37.731Z,1.95
2022-11-28T06:45:06.231Z,6.82
2022-11-28T06:47:32.994Z,16.30
2022-11-28T06:49:59.814Z,21.13
2022-11-28T06:52:26.685Z,26.05
2022-11-28T06:54:53.438Z,18.15
2022-11-28T06:57:20.176Z,40.95
2022-11-28T06:59:49.424Z,24.08
2022-11-28T07:02:16.271Z,51.28
2022-11-28T07:04:43.034Z,18.33
2022-11-28T07:07:13.681Z,2.20
2022-11-28T07:09:43.586Z,17.10
2022-11-28T07:12:10.593Z,5.55
2022-11-28T07:14:38.146Z,2.15
2022-11-28T07:17:05.015Z,6.00
2022-11-28T07:19:31.798Z,4.07
2022-11-28T07:21:58.576Z,2.08
2022-11-28T07:24:25.602Z,6.53
2022-11-28T07:26:52.337Z,15.27
2022-11-28T07:29:19.631Z,2.10
2022-11-28T07:31:46.700Z,10.98
2022-11-28T07:34:13.490Z,9.93
2022-11-28T07:36:40.675Z,9.13
2022-11-28T07:39:08.912Z,4.25
2022-11-28T07:41:35.690Z,5.13
2022-11-28T07:44:03.762Z,1.15
2022-11-28T07:46:32.167Z,1.13
2022-11-28T07:48:59.155Z,2.42
2022-11-28T07:51:30.106Z,4.30
2022-11-28T07:53:57.355Z,1.77
2022-11-28T07:56:39.594Z,1.40
2022-11-28T07:59:14.842Z,1.73
2022-11-28T08:01:41.916Z,1.77
2022-11-28T08:04:10.165Z,1.02
2022-11-28T08:06:41.085Z,1.35
2022-11-28T08:09:08.311Z,1.20
2022-11-28T08:11:35.844Z,2.33
2022-11-28T08:14:03.030Z,1.75
2022-11-28T08:16:30.730Z,1.25
2022-11-28T08:19:00.104Z,1.33
2022-11-28T08:21:32.357Z,1.70
2022-11-28T08:24:01.843Z,1.33
2022-11-28T08:26:31.121Z,1.08
2022-11-28T08:28:59.743Z,1.67
2022-11-28T08:31:30.441Z,1.13
2022-11-28T08:34:01.771Z,1.30
2022-11-28T08:41:45.755Z,1.60
2022-11-28T08:44:13.111Z,1.55
2022-11-28T08:46:39.978Z,1.40
2022-11-28T08:49:07.428Z,1.48
2022-11-28T08:51:34.245Z,1.50
2022-11-28T08:54:00.989Z,1.30
2022-11-28T08:56:28.481Z,2.58
2022-11-28T08:58:55.704Z,5.97
2022-11-28T09:01:25.219Z,6.32
2022-11-28T09:03:54.065Z,5.78
2022-11-28T09:06:22.241Z,1.65
2022-11-28T09:08:50.289Z,1.30
2022-11-28T09:11:20.316Z,1.63
2022-11-28T09:13:47.730Z,1.55
2022-11-28T09:16:15.313Z,1.30
2022-11-28T09:18:42.565Z,1.20
2022-11-28T09:21:12.363Z,1.48
2022-11-28T09:23:41.880Z,1.52
2022-11-28T09:26:17.361Z,1.35
2022-11-28T09:28:45.117Z,1.75
2022-11-28T09:31:13.804Z,1.35
2022-11-28T09:33:41.227Z,1.20
2022-11-28T09:36:14.916Z,1.05
2022-11-28T09:38:41.973Z,1.55
2022-11-28T09:42:06.478Z,1.90
2022-11-28T09:44:43.207Z,3.20
2022-11-28T09:47:23.365Z,1.10
2022-11-28T09:50:03.834Z,2.00
2022-11-28T09:52:53.199Z,1.50
2022-11-28T09:55:52.754Z,3.72
2022-11-28T09:58:30.807Z,2.00
2022-11-28T10:01:17.070Z,1.40
2022-11-28T10:04:01.399Z,1.77
2022-11-28T10:06:45.700Z,1.88
2022-11-28T10:09:42.665Z,1.30
2022-11-28T10:12:31.169Z,1.25
2022-11-28T10:15:18.420Z,1.90
2022-11-28T10:17:55.266Z,2.22
2022-11-28T10:20:38.092Z,2.15
2022-11-28T10:23:23.683Z,2.05
2022-11-28T10:26:22.852Z,1.70
2022-11-28T10:28:53.642Z,1.90
2022-11-28T10:31:43.029Z,2.30
2022-11-28T10:34:30.416Z,2.33
2022-11-28T10:37:01.193Z,2.70
2022-11-28T10:39:28.398Z,2.55
2022-11-28T10:42:17.463Z,2.20
2022-11-28T10:45:28.903Z,1.95
2022-11-28T10:48:44.650Z,3.55
2022-11-28T10:51:38.914Z,2.85
2022-11-28T10:54:47.579Z,4.00
2022-11-28T10:57:34.442Z,5.28
2022-11-28T11:00:13.541Z,4.82
2022-11-28T11:02:55.833Z,4.82
2022-11-28T11:05:28.642Z,5.10
2022-11-28T11:08:22.744Z,5.25
2022-11-28T11:10:55.926Z,3.55
2022-11-28T11:13:32.079Z,3.65
2022-11-28T11:16:04.580Z,4.30
2022-11-28T11:18:37.254Z,3.35
2022-11-28T11:21:25.940Z,3.42
2022-11-28T11:24:18.123Z,2.70
2022-11-28T11:26:48.379Z,2.65
2022-11-28T11:29:35.491Z,3.20
2022-11-28T11:32:06.415Z,5.25
2022-11-28T11:34:42.569Z,4.72
2022-11-28T11:37:36.885Z,2.72
2022-11-28T11:40:26.797Z,4.20
2022-11-28T11:43:00.232Z,2.10
2022-11-28T11:45:34.100Z,1.52
2022-11-28T11:48:02.243Z,3.45
2022-11-28T11:50:31.984Z,1.83
2022-11-28T11:53:09.028Z,3.40
2022-11-28T11:55:53.151Z,1.60
2022-11-28T11:58:35.194Z,3.13
2022-11-28T12:01:02.907Z,3.15
2022-11-28T12:03:33.573Z,3.20
2022-11-28T12:06:14.919Z,2.97
2022-11-28T12:08:50.433Z,1.70
2022-11-28T12:14:34.578Z,2.55
2022-11-28T12:21:13.891Z,1.92
2022-11-28T12:24:03.322Z,2.30
2022-11-28T12:26:59.525Z,2.50
2022-11-28T12:30:06.581Z,1.38
2022-11-28T12:33:14.425Z,1.35
2022-11-28T12:35:44.600Z,2.72
2022-11-28T12:38:54.410Z,2.55
2022-11-28T12:41:37.580Z,1.58
2022-11-28T12:44:33.354Z,2.33
2022-11-28T12:47:42.061Z,1.55
2022-11-28T12:50:20.412Z,2.42
2022-11-28T12:53:30.802Z,1.80
2022-11-28T12:56:14.543Z,1.50
2022-11-28T12:58:49.938Z,0.85
2022-11-28T13:01:46.845Z,1.30
2022-11-28T13:04:49.622Z,1.45
2022-11-28T13:08:01.827Z,1.10
2022-11-28T13:11:11.404Z,0.95
2022-11-28T13:13:56.243Z,1.67
2022-11-28T13:16:51.123Z,1.45
2022-11-28T13:19:44.576Z,1.08
2022-11-28T13:22:23.478Z,1.10
2022-11-28T13:25:25.918Z,1.40
2022-11-28T13:28:18.963Z,2.47
2022-11-28T13:30:55.072Z,2.05
2022-11-28T13:33:45.081Z,3.63
2022-11-28T13:39:47.547Z,1.73
2022-11-28T13:45:46.182Z,1.48
2022-11-28T13:49:13.257Z,1.95
2022-11-28T13:51:41.009Z,1.63
2022-11-28T13:54:20.156Z,4.95
2022-11-28T13:57:10.523Z,4.55
2022-11-28T13:59:38.037Z,5.20
2022-11-28T14:02:23.805Z,5.80
2022-11-28T14:04:50.745Z,5.38
2022-11-28T14:07:31.148Z,2.05
2022-11-28T14:10:24.308Z,2.83
2022-11-28T14:13:14.153Z,7.82
2022-11-28T14:15:54.443Z,4.85
2022-11-28T14:18:57.517Z,3.15
2022-11-28T14:21:55.800Z,5.05
2022-11-28T14:24:52.639Z,3.20
2022-11-28T14:27:33.539Z,2.75
2022-11-28T14:30:01.589Z,2.22
2022-11-28T14:32:37.153Z,1.20
2022-11-28T14:35:12.061Z,4.60
2022-11-28T14:37:55.522Z,3.20
2022-11-28T14:40:57.235Z,1.30
2022-11-28T14:43:24.102Z,2.28
2022-11-28T14:45:52.675Z,4.50
2022-11-28T14:48:31.125Z,3.03
2022-11-28T14:51:01.870Z,8.45
2022-11-28T14:53:45.446Z,3.90
2022-11-28T14:56:14.921Z,2.13
2022-11-28T14:59:08.789Z,4.22
2022-11-28T15:02:16.468Z,5.25
2022-11-28T15:05:08.891Z,1.90
2022-11-28T15:08:11.520Z,1.40
2022-11-28T15:10:55.925Z,1.52
2022-11-28T15:14:18.998Z,2.33
2022-11-28T15:17:08.079Z,2.10
2022-11-28T15:19:48.890Z,2.50
2022-11-28T15:25:25.646Z,2.47
2022-11-28T15:27:54.350Z,2.47
2022-11-28T15:30:31.126Z,1.52
2022-11-28T15:33:01.438Z,2.47
2022-11-28T15:35:29.074Z,3.20
2022-11-28T15:37:58.037Z,2.30
2022-11-28T15:40:36.898Z,3.15
2022-11-28T15:43:11.290Z,3.80
2022-11-28T15:45:42.169Z,5.10
2022-11-28T15:48:28.169Z,4.10
2022-11-28T15:50:55.642Z,6.63
2022-11-28T15:53:22.720Z,8.43
2022-11-28T15:56:16.002Z,8.48
2022-11-28T15:58:44.507Z,7.60
2022-11-28T16:01:18.372Z,9.23
2022-11-28T16:04:17.303Z,7.70
2022-11-28T16:06:50.814Z,7.32
2022-11-28T16:09:17.470Z,8.05
2022-11-28T16:11:51.733Z,3.72
2022-11-28T16:14:42.573Z,5.22
2022-11-28T16:17:20.190Z,9.10
2022-11-28T16:19:50.292Z,5.68
2022-11-28T16:22:21.162Z,8.15
2022-11-28T16:24:55.339Z,8.23
2022-11-28T16:27:38.169Z,9.75
2022-11-28T16:30:34.613Z,9.40
2022-11-28T16:33:01.418Z,10.93
2022-11-28T16:35:41.523Z,7.10
2022-11-28T16:38:21.623Z,6.60
2022-11-28T16:40:49.281Z,7.95
2022-11-28T16:43:41.637Z,8.82
2022-11-28T16:46:21.045Z,6.05
2022-11-28T16:48:57.824Z,8.80
2022-11-28T16:51:34.424Z,6.25
2022-11-28T16:54:26.268Z,8.20
2022-11-28T16:57:17.605Z,7.90
2022-11-28T16:59:44.846Z,7.80
2022-11-28T17:02:22.923Z,5.28
2022-11-28T17:04:52.664Z,6.53
2022-11-28T17:07:23.288Z,6.55
2022-11-28T17:09:51.183Z,4.88
2022-11-28T17:12:34.572Z,5.68
2022-11-28T17:15:01.306Z,4.38
2022-11-28T17:17:30.034Z,2.67
2022-11-28T17:19:56.812Z,3.88
2022-11-28T17:22:30.249Z,3.28
2022-11-28T17:25:01.408Z,4.38
2022-11-28T17:27:28.214Z,2.40
2022-11-28T17:29:55.058Z,3.70
2022-11-28T17:32:21.962Z,6.18
2022-11-28T17:34:48.725Z,4.13
2022-11-28T17:37:16.414Z,3.25
2022-11-28T17:40:03.476Z,3.95
2022-11-28T17:42:30.794Z,4.10
2022-11-28T17:44:57.559Z,5.65
2022-11-28T17:47:24.455Z,6.57
2022-11-28T17:49:51.679Z,4.03
2022-11-28T17:52:19.970Z,5.47
2022-11-28T17:54:46.762Z,2.70
2022-11-28T17:57:13.571Z,5.70
2022-11-28T17:59:40.299Z,4.40
2022-11-28T18:02:07.489Z,7.80
2022-11-28T18:04:37.369Z,5.28
2022-11-28T18:07:04.242Z,6.53
2022-11-28T18:09:30.970Z,3.53
2022-11-28T18:11:57.775Z,1.65
2022-11-28T18:14:24.509Z,3.42
2022-11-28T18:16:51.290Z,3.50
2022-11-28T18:19:18.106Z,3.22
2022-11-28T18:21:44.886Z,5.68
2022-11-28T18:24:11.646Z,10.93
2022-11-28T18:26:39.142Z,3.42
2022-11-28T18:29:09.610Z,3.25
2022-11-28T18:31:36.457Z,4.27
2022-11-28T18:34:07.246Z,3.28
2022-11-28T18:36:37.206Z,2.67
2022-11-28T18:39:08.874Z,3.22
2022-11-28T18:41:36.061Z,2.67
2022-11-28T18:44:04.830Z,3.35
2022-11-28T18:46:33.070Z,2.50
2022-11-28T18:49:00.128Z,3.80
2022-11-28T18:51:31.252Z,4.15
2022-11-28T18:53:58.590Z,3.45
2022-11-28T18:56:26.989Z,2.72
2022-11-28T18:58:54.397Z,2.67
2022-11-28T19:01:30.810Z,4.28
2022-11-28T19:04:05.160Z,4.63
2022-11-28T19:06:32.061Z,4.00
2022-11-28T19:09:01.391Z,4.70
2022-11-28T19:11:29.348Z,3.45
2022-11-28T19:13:56.469Z,3.05
2022-11-28T19:16:29.687Z,3.47
2022-11-28T19:18:57.612Z,6.00
2022-11-28T19:21:31.577Z,4.57
2022-11-28T19:24:00.098Z,6.68
2022-11-28T19:26:29.824Z,6.57
2022-11-28T19:28:57.511Z,6.90
2022-11-28T19:31:27.931Z,5.28
2022-11-28T19:34:12.690Z,9.63
2022-11-28T19:36:45.986Z,8.35
2022-11-28T19:39:19.764Z,7.95
2022-11-28T19:41:47.339Z,5.25
2022-11-28T19:44:15.066Z,7.70
2022-11-28T19:46:42.494Z,9.35
2022-11-28T19:49:21.012Z,9.73
2022-11-28T19:51:48.834Z,7.80
2022-11-28T19:54:19.515Z,8.07
2022-11-28T19:56:47.507Z,5.72
2022-11-28T19:59:14.438Z,5.65
2022-11-28T20:01:41.374Z,9.38
2022-11-28T20:04:08.218Z,6.25
2022-11-28T20:06:35.421Z,8.85
2022-11-28T20:09:07.165Z,9.90
2022-11-28T20:11:36.229Z,8.75
2022-11-28T20:14:06.798Z,10.27
2022-11-28T20:16:36.214Z,7.20
2022-11-28T20:19:03.549Z,9.98
2022-11-28T20:21:31.788Z,8.75
2022-11-28T20:24:04.344Z,6.45
2022-11-28T20:26:39.102Z,5.78
2022-11-28T20:29:07.887Z,9.50
2022-11-28T20:31:45.313Z,8.38
2022-11-28T20:34:14.334Z,8.80
2022-11-28T20:36:41.177Z,7.00
2022-11-28T20:39:09.437Z,5.40
2022-11-28T20:41:36.195Z,9.48
2022-11-28T20:44:03.032Z,8.25
2022-11-28T20:46:33.468Z,9.10
2022-11-28T20:49:05.661Z,7.00
2022-11-28T20:51:34.677Z,6.50
2022-11-28T20:54:04.789Z,7.80
2022-11-28T20:56:51.702Z,6.68
2022-11-28T20:59:22.311Z,8.32
2022-11-28T21:01:49.279Z,7.47
2022-11-28T21:04:18.070Z,7.43
2022-11-28T21:06:47.115Z,7.68
2022-11-28T21:09:15.990Z,6.28
2022-11-28T21:11:56.807Z,6.72
2022-11-28T21:14:24.738Z,8.68
2022-11-28T21:16:51.596Z,6.85
2022-11-28T21:19:18.383Z,6.00
2022-11-28T21:21:45.130Z,8.05
2022-11-28T21:24:13.746Z,6.90
2022-11-28T21:26:45.249Z,6.25
2022-11-28T21:29:16.680Z,7.88
2022-11-28T21:31:45.166Z,8.15
2022-11-28T21:34:17.513Z,6.60
2022-11-28T21:36:44.874Z,7.38
2022-11-28T21:39:20.464Z,10.32
2022-11-28T21:41:47.787Z,7.60
2022-11-28T21:44:14.633Z,8.27
2022-11-28T21:46:41.481Z,8.63
2022-11-28T21:49:08.273Z,8.73
2022-11-28T21:51:36.086Z,10.15
2022-11-28T21:54:02.829Z,8.95
2022-11-28T21:56:29.609Z,9.05
2022-11-28T21:58:56.341Z,6.88
2022-11-28T22:01:23.151Z,10.65
2022-11-28T22:03:49.999Z,9.18
2022-11-28T22:06:21.694Z,11.13
2022-11-28T22:08:49.050Z,11.68
2022-11-28T22:11:16.844Z,7.32
2022-11-28T22:13:45.989Z,11.38
2022-11-28T22:16:23.283Z,13.50
2022-11-28T22:18:53.435Z,13.65
2022-11-28T22:24:08.383Z,12.40
2022-11-28T22:26:35.304Z,12.63
2022-11-28T22:29:03.907Z,13.30
2022-11-28T22:31:30.997Z,10.70
2022-11-28T22:33:57.834Z,12.40
2022-11-28T22:36:24.963Z,13.77
2022-11-28T22:38:56.415Z,13.98
2022-11-28T22:41:29.030Z,14.77
2022-11-28T22:44:02.141Z,13.60
2022-11-28T22:46:29.186Z,11.27
2022-11-28T22:48:56.390Z,14.23
2022-11-28T22:51:25.785Z,12.00
2022-11-28T22:53:55.291Z,14.25
2022-11-28T22:56:22.878Z,14.35
2022-11-28T22:58:49.762Z,14.98
2022-11-28T23:01:26.553Z,14.48
2022-11-28T23:03:54.578Z,13.13
2022-11-28T23:06:26.657Z,13.45
2022-11-28T23:08:53.992Z,11.85
2022-11-28T23:11:24.713Z,12.82
2022-11-28T23:13:52.685Z,13.00
2022-11-28T23:16:24.599Z,12.90
2022-11-28T23:18:55.001Z,12.23
2022-11-28T23:21:23.814Z,11.57
2022-11-28T23:23:51.186Z,11.68
2022-11-28T23:26:22.837Z,12.27
2022-11-28T23:28:50.564Z,11.55
2022-11-28T23:31:27.583Z,11.77
2022-11-28T23:33:55.464Z,12.05
2022-11-28T23:36:38.461Z,10.07
2022-11-28T23:39:16.015Z,10.13
2022-11-28T23:41:43.503Z,11.18
2022-11-28T23:44:12.247Z,10.10
2022-11-28T23:46:39.672Z,10.05
2022-11-28T23:49:07.348Z,8.50
2022-11-28T23:51:34.104Z,8.43
2022-11-28T23:54:01.249Z,9.80
2022-11-28T23:56:31.314Z,10.13
2022-11-28T23:59:01.756Z,10.55
